sensor_id;sensor_type;location;lat;lon;timestamp;pressure;altitude;pressure_sealevel;temperature
20730;BMP280;10526;50.850;12.928;2023-11-19T00:03:38;97764.09;;;3.48
20730;BMP280;10526;50.850;12.928;2023-11-19T00:08:00;97749.09;;;3.52
20730;BMP280;10526;50.850;12.928;2023-11-19T00:12:24;97744.66;;;3.56
20730;BMP280;10526;50.850;12.928;2023-11-19T00:16:46;97734.22;;;3.60
20730;BMP280;10526;50.850;12.928;2023-11-19T00:21:08;97739.56;;;3.63
20730;BMP280;10526;50.850;12.928;2023-11-19T00:25:32;97729.84;;;3.67
20730;BMP280;10526;50.850;12.928;2023-11-19T00:29:54;97720.91;;;3.72
20730;BMP280;10526;50.850;12.928;2023-11-19T00:34:16;97720.94;;;3.75
20730;BMP280;10526;50.850;12.928;2023-11-19T00:38:43;97715.72;;;3.79
20730;BMP280;10526;50.850;12.928;2023-11-19T00:43:05;97713.59;;;3.85
20730;BMP280;10526;50.850;12.928;2023-11-19T00:47:27;97698.59;;;3.89
20730;BMP280;10526;50.850;12.928;2023-11-19T00:51:50;97679.88;;;3.94
20730;BMP280;10526;50.850;12.928;2023-11-19T00:56:12;97673.91;;;3.97
20730;BMP280;10526;50.850;12.928;2023-11-19T01:00:34;97668.72;;;4.04
20730;BMP280;10526;50.850;12.928;2023-11-19T01:04:56;97654.13;;;4.10
20730;BMP280;10526;50.850;12.928;2023-11-19T01:09:18;97649.34;;;4.16
20730;BMP280;10526;50.850;12.928;2023-11-19T01:13:41;97646.44;;;4.24
20730;BMP280;10526;50.850;12.928;2023-11-19T01:18:03;97636.00;;;4.32
20730;BMP280;10526;50.850;12.928;2023-11-19T01:22:27;97627.03;;;4.36
20730;BMP280;10526;50.850;12.928;2023-11-19T01:26:49;97633.81;;;4.41
20730;BMP280;10526;50.850;12.928;2023-11-19T01:31:14;97611.66;;;4.45
20730;BMP280;10526;50.850;12.928;2023-11-19T01:35:36;97601.97;;;4.49
20730;BMP280;10526;50.850;12.928;2023-11-19T01:39:59;97588.78;;;4.53
20730;BMP280;10526;50.850;12.928;2023-11-19T01:44:21;97574.16;;;4.56
20730;BMP280;10526;50.850;12.928;2023-11-19T01:48:46;97566.25;;;4.56
20730;BMP280;10526;50.850;12.928;2023-11-19T01:53:09;97567.00;;;4.56
20730;BMP280;10526;50.850;12.928;2023-11-19T01:57:35;97544.41;;;4.59
20730;BMP280;10526;50.850;12.928;2023-11-19T02:02:01;97529.38;;;4.63
20730;BMP280;10526;50.850;12.928;2023-11-19T02:06:25;97517.38;;;4.65
20730;BMP280;10526;50.850;12.928;2023-11-19T02:10:48;97513.22;;;4.68
20730;BMP280;10526;50.850;12.928;2023-11-19T02:15:10;97489.53;;;4.71
20730;BMP280;10526;50.850;12.928;2023-11-19T02:19:33;97473.00;;;4.74
20730;BMP280;10526;50.850;12.928;2023-11-19T02:23:55;97477.53;;;4.77
20730;BMP280;10526;50.850;12.928;2023-11-19T02:28:30;97475.69;;;4.82
20730;BMP280;10526;50.850;12.928;2023-11-19T02:32:54;97463.66;;;4.84
20730;BMP280;10526;50.850;12.928;2023-11-19T02:37:19;97451.22;;;4.85
20730;BMP280;10526;50.850;12.928;2023-11-19T02:41:41;97456.50;;;4.85
20730;BMP280;10526;50.850;12.928;2023-11-19T02:46:05;97450.84;;;4.86
20730;BMP280;10526;50.850;12.928;2023-11-19T02:50:33;97441.84;;;4.91
20730;BMP280;10526;50.850;12.928;2023-11-19T02:54:56;97424.88;;;4.95
20730;BMP280;10526;50.850;12.928;2023-11-19T02:59:18;97420.78;;;4.98
20730;BMP280;10526;50.850;12.928;2023-11-19T03:03:50;97421.19;;;5.00
20730;BMP280;10526;50.850;12.928;2023-11-19T03:08:17;97408.03;;;5.03
20730;BMP280;10526;50.850;12.928;2023-11-19T03:12:44;97386.53;;;5.05
20730;BMP280;10526;50.850;12.928;2023-11-19T03:17:07;97385.06;;;5.08
20730;BMP280;10526;50.850;12.928;2023-11-19T03:21:32;97367.72;;;5.10
20730;BMP280;10526;50.850;12.928;2023-11-19T03:25:54;97344.72;;;5.14
20730;BMP280;10526;50.850;12.928;2023-11-19T03:30:17;97329.28;;;5.16
20730;BMP280;10526;50.850;12.928;2023-11-19T03:34:40;97328.56;;;5.19
20730;BMP280;10526;50.850;12.928;2023-11-19T03:39:02;97310.47;;;5.21
20730;BMP280;10526;50.850;12.928;2023-11-19T03:43:25;97321.41;;;5.23
20730;BMP280;10526;50.850;12.928;2023-11-19T03:47:47;97317.66;;;5.28
20730;BMP280;10526;50.850;12.928;2023-11-19T03:52:12;97304.84;;;5.34
20730;BMP280;10526;50.850;12.928;2023-11-19T03:56:42;97304.13;;;5.40
20730;BMP280;10526;50.850;12.928;2023-11-19T04:01:12;97282.63;;;5.49
20730;BMP280;10526;50.850;12.928;2023-11-19T04:05:35;97293.97;;;5.56
20730;BMP280;10526;50.850;12.928;2023-11-19T04:09:58;97300.81;;;5.65
20730;BMP280;10526;50.850;12.928;2023-11-19T04:14:20;97297.41;;;5.71
20730;BMP280;10526;50.850;12.928;2023-11-19T04:18:45;97291.00;;;5.79
20730;BMP280;10526;50.850;12.928;2023-11-19T04:23:07;97289.53;;;5.89
20730;BMP280;10526;50.850;12.928;2023-11-19T04:27:30;97271.03;;;6.00
20730;BMP280;10526;50.850;12.928;2023-11-19T04:31:52;97274.78;;;6.09
20730;BMP280;10526;50.850;12.928;2023-11-19T04:36:19;97273.28;;;6.12
20730;BMP280;10526;50.850;12.928;2023-11-19T04:40:42;97255.94;;;6.15
20730;BMP280;10526;50.850;12.928;2023-11-19T04:45:05;97254.03;;;6.15
20730;BMP280;10526;50.850;12.928;2023-11-19T04:49:28;97256.69;;;6.15
20730;BMP280;10526;50.850;12.928;2023-11-19T04:53:52;97238.19;;;6.15
20730;BMP280;10526;50.850;12.928;2023-11-19T04:58:14;97244.22;;;6.16
20730;BMP280;10526;50.850;12.928;2023-11-19T05:02:37;97242.31;;;6.16
20730;BMP280;10526;50.850;12.928;2023-11-19T05:07:00;97243.81;;;6.17
20730;BMP280;10526;50.850;12.928;2023-11-19T05:11:22;97228.38;;;6.19
20730;BMP280;10526;50.850;12.928;2023-11-19T05:15:44;97237.38;;;6.22
20730;BMP280;10526;50.850;12.928;2023-11-19T05:20:07;97225.69;;;6.26
20730;BMP280;10526;50.850;12.928;2023-11-19T05:24:35;97210.94;;;6.32
20730;BMP280;10526;50.850;12.928;2023-11-19T05:28:57;97223.00;;;6.37
20730;BMP280;10526;50.850;12.928;2023-11-19T05:33:21;97215.06;;;6.44
20730;BMP280;10526;50.850;12.928;2023-11-19T05:37:43;97194.31;;;6.46
20730;BMP280;10526;50.850;12.928;2023-11-19T05:42:05;97202.97;;;6.54
20730;BMP280;10526;50.850;12.928;2023-11-19T05:46:27;97208.56;;;6.63
20730;BMP280;10526;50.850;12.928;2023-11-19T05:50:50;97207.44;;;6.71
20730;BMP280;10526;50.850;12.928;2023-11-19T05:55:12;97190.00;;;6.77
20730;BMP280;10526;50.850;12.928;2023-11-19T05:59:36;97189.59;;;6.86
20730;BMP280;10526;50.850;12.928;2023-11-19T06:03:58;97202.41;;;6.91
20730;BMP280;10526;50.850;12.928;2023-11-19T06:08:22;97175.88;;;7.02
20730;BMP280;10526;50.850;12.928;2023-11-19T06:12:45;97178.16;;;7.07
20730;BMP280;10526;50.850;12.928;2023-11-19T06:17:10;97174.34;;;7.11
20730;BMP280;10526;50.850;12.928;2023-11-19T06:21:33;97162.97;;;7.18
20730;BMP280;10526;50.850;12.928;2023-11-19T06:25:57;97168.19;;;7.25
20730;BMP280;10526;50.850;12.928;2023-11-19T06:30:20;97169.66;;;7.33
20730;BMP280;10526;50.850;12.928;2023-11-19T06:34:47;97160.59;;;7.34
20730;BMP280;10526;50.850;12.928;2023-11-19T06:39:10;97170.38;;;7.37
20730;BMP280;10526;50.850;12.928;2023-11-19T06:43:32;97172.97;;;7.41
20730;BMP280;10526;50.850;12.928;2023-11-19T06:48:01;97181.72;;;7.42
20730;BMP280;10526;50.850;12.928;2023-11-19T06:52:25;97178.59;;;7.50
20730;BMP280;10526;50.850;12.928;2023-11-19T06:56:48;97177.44;;;7.55
20730;BMP280;10526;50.850;12.928;2023-11-19T07:01:15;97179.63;;;7.60
20730;BMP280;10526;50.850;12.928;2023-11-19T07:05:39;97198.16;;;7.67
20730;BMP280;10526;50.850;12.928;2023-11-19T07:10:02;97189.00;;;7.75
20730;BMP280;10526;50.850;12.928;2023-11-19T07:14:26;97214.69;;;7.82
20730;BMP280;10526;50.850;12.928;2023-11-19T07:18:49;97215.38;;;7.89
20730;BMP280;10526;50.850;12.928;2023-11-19T07:23:12;97205.47;;;7.97
20730;BMP280;10526;50.850;12.928;2023-11-19T07:27:34;97222.03;;;8.05
20730;BMP280;10526;50.850;12.928;2023-11-19T07:31:56;97208.38;;;8.10
20730;BMP280;10526;50.850;12.928;2023-11-19T07:36:18;97223.13;;;8.14
20730;BMP280;10526;50.850;12.928;2023-11-19T07:40:43;97221.19;;;8.18
20730;BMP280;10526;50.850;12.928;2023-11-19T07:45:18;97230.59;;;8.23
20730;BMP280;10526;50.850;12.928;2023-11-19T07:49:42;97235.44;;;8.32
20730;BMP280;10526;50.850;12.928;2023-11-19T07:54:06;97250.88;;;8.40
20730;BMP280;10526;50.850;12.928;2023-11-19T07:58:29;97238.91;;;8.59
20730;BMP280;10526;50.850;12.928;2023-11-19T08:02:51;97238.88;;;9.24
20730;BMP280;10526;50.850;12.928;2023-11-19T08:07:13;97248.94;;;12.29
20730;BMP280;10526;50.850;12.928;2023-11-19T08:11:35;97248.97;;;12.42
20730;BMP280;10526;50.850;12.928;2023-11-19T08:15:58;97241.84;;;11.64
20730;BMP280;10526;50.850;12.928;2023-11-19T08:20:20;97252.00;;;11.20
20730;BMP280;10526;50.850;12.928;2023-11-19T08:24:42;97239.81;;;10.87
20730;BMP280;10526;50.850;12.928;2023-11-19T08:29:05;97252.22;;;10.74
20730;BMP280;10526;50.850;12.928;2023-11-19T08:33:27;97242.41;;;10.71
20730;BMP280;10526;50.850;12.928;2023-11-19T08:37:50;97233.84;;;11.15
20730;BMP280;10526;50.850;12.928;2023-11-19T08:42:13;97244.50;;;11.15
20730;BMP280;10526;50.850;12.928;2023-11-19T08:46:35;97241.31;;;10.88
20730;BMP280;10526;50.850;12.928;2023-11-19T08:50:57;97234.13;;;10.65
20730;BMP280;10526;50.850;12.928;2023-11-19T08:55:19;97245.06;;;10.51
20730;BMP280;10526;50.850;12.928;2023-11-19T08:59:42;97242.03;;;10.52
20730;BMP280;10526;50.850;12.928;2023-11-19T09:04:04;97252.88;;;10.42
20730;BMP280;10526;50.850;12.928;2023-11-19T09:08:28;97249.22;;;10.52
20730;BMP280;10526;50.850;12.928;2023-11-19T09:12:50;97253.06;;;10.71
20730;BMP280;10526;50.850;12.928;2023-11-19T09:17:12;97235.44;;;10.77
20730;BMP280;10526;50.850;12.928;2023-11-19T09:21:34;97254.31;;;10.82
20730;BMP280;10526;50.850;12.928;2023-11-19T09:26:00;97241.44;;;10.81
20730;BMP280;10526;50.850;12.928;2023-11-19T09:30:22;97247.53;;;10.61
20730;BMP280;10526;50.850;12.928;2023-11-19T09:34:45;97259.53;;;10.70
20730;BMP280;10526;50.850;12.928;2023-11-19T09:39:12;97254.91;;;10.90
20730;BMP280;10526;50.850;12.928;2023-11-19T09:43:40;97270.53;;;11.08
20730;BMP280;10526;50.850;12.928;2023-11-19T09:48:05;97268.66;;;11.25
20730;BMP280;10526;50.850;12.928;2023-11-19T09:52:29;97266.75;;;11.25
20730;BMP280;10526;50.850;12.928;2023-11-19T09:56:51;97263.91;;;11.32
20730;BMP280;10526;50.850;12.928;2023-11-19T10:01:15;97263.00;;;11.22
20730;BMP280;10526;50.850;12.928;2023-11-19T10:05:40;97267.50;;;11.09
20730;BMP280;10526;50.850;12.928;2023-11-19T10:10:03;97268.09;;;10.81
20730;BMP280;10526;50.850;12.928;2023-11-19T10:14:25;97249.34;;;10.48
20730;BMP280;10526;50.850;12.928;2023-11-19T10:18:50;97266.78;;;10.49
20730;BMP280;10526;50.850;12.928;2023-11-19T10:23:12;97259.75;;;10.59
20730;BMP280;10526;50.850;12.928;2023-11-19T10:27:35;97260.66;;;10.52
20730;BMP280;10526;50.850;12.928;2023-11-19T10:31:57;97259.75;;;10.59
20730;BMP280;10526;50.850;12.928;2023-11-19T10:36:40;97256.63;;;10.64
20730;BMP280;10526;50.850;12.928;2023-11-19T10:41:03;97242.84;;;10.85
20730;BMP280;10526;50.850;12.928;2023-11-19T10:45:27;97259.28;;;11.00
20730;BMP280;10526;50.850;12.928;2023-11-19T10:49:49;97257.19;;;11.28
20730;BMP280;10526;50.850;12.928;2023-11-19T10:54:13;97254.75;;;11.49
20730;BMP280;10526;50.850;12.928;2023-11-19T10:58:38;97259.25;;;11.69
20730;BMP280;10526;50.850;12.928;2023-11-19T11:03:12;97255.22;;;12.22
20730;BMP280;10526;50.850;12.928;2023-11-19T11:07:38;97253.28;;;12.77
20730;BMP280;10526;50.850;12.928;2023-11-19T11:12:04;97260.47;;;12.80
20730;BMP280;10526;50.850;12.928;2023-11-19T11:16:29;97253.50;;;12.70
20730;BMP280;10526;50.850;12.928;2023-11-19T11:35:46;97223.16;;;12.64
20730;BMP280;10526;50.850;12.928;2023-11-19T11:40:15;97223.78;;;12.55
20730;BMP280;10526;50.850;12.928;2023-11-19T11:45:09;97225.59;;;12.46
20730;BMP280;10526;50.850;12.928;2023-11-19T11:49:32;97236.16;;;12.37
20730;BMP280;10526;50.850;12.928;2023-11-19T11:53:58;97223.41;;;12.28
20730;BMP280;10526;50.850;12.928;2023-11-19T11:58:25;97229.84;;;12.30
20730;BMP280;10526;50.850;12.928;2023-11-19T12:02:48;97225.50;;;12.20
20730;BMP280;10526;50.850;12.928;2023-11-19T12:07:16;97234.50;;;11.97
20730;BMP280;10526;50.850;12.928;2023-11-19T12:11:38;97231.00;;;11.71
20730;BMP280;10526;50.850;12.928;2023-11-19T12:16:09;97231.19;;;11.64
20730;BMP280;10526;50.850;12.928;2023-11-19T12:20:33;97232.75;;;11.62
20730;BMP280;10526;50.850;12.928;2023-11-19T12:24:58;97221.44;;;11.41
20730;BMP280;10526;50.850;12.928;2023-11-19T12:29:21;97225.69;;;11.39
20730;BMP280;10526;50.850;12.928;2023-11-19T12:33:44;97210.19;;;11.50
20730;BMP280;10526;50.850;12.928;2023-11-19T12:38:07;97209.84;;;11.64
20730;BMP280;10526;50.850;12.928;2023-11-19T12:42:36;97208.31;;;11.80
20730;BMP280;10526;50.850;12.928;2023-11-19T12:47:00;97209.63;;;11.88
20730;BMP280;10526;50.850;12.928;2023-11-19T12:51:31;97206.69;;;12.11
20730;BMP280;10526;50.850;12.928;2023-11-19T12:55:55;97200.50;;;12.56
20730;BMP280;10526;50.850;12.928;2023-11-19T13:00:24;97202.13;;;12.91
20730;BMP280;10526;50.850;12.928;2023-11-19T13:04:47;97216.53;;;13.07
20730;BMP280;10526;50.850;12.928;2023-11-19T13:09:28;97192.69;;;13.00
20730;BMP280;10526;50.850;12.928;2023-11-19T13:14:07;97209.59;;;12.84
20730;BMP280;10526;50.850;12.928;2023-11-19T13:18:31;97194.13;;;12.79
20730;BMP280;10526;50.850;12.928;2023-11-19T13:27:21;97207.31;;;12.31
20730;BMP280;10526;50.850;12.928;2023-11-19T13:31:43;97200.91;;;12.00
20730;BMP280;10526;50.850;12.928;2023-11-19T13:36:06;97197.13;;;11.85
20730;BMP280;10526;50.850;12.928;2023-11-19T13:40:30;97188.22;;;11.75
20730;BMP280;10526;50.850;12.928;2023-11-19T13:44:52;97197.84;;;11.56
20730;BMP280;10526;50.850;12.928;2023-11-19T13:49:14;97206.63;;;11.40
20730;BMP280;10526;50.850;12.928;2023-11-19T13:53:37;97206.03;;;11.49
20730;BMP280;10526;50.850;12.928;2023-11-19T13:58:02;97210.25;;;11.63
20730;BMP280;10526;50.850;12.928;2023-11-19T14:02:24;97211.59;;;11.55
20730;BMP280;10526;50.850;12.928;2023-11-19T14:06:47;97209.84;;;11.32
20730;BMP280;10526;50.850;12.928;2023-11-19T14:11:09;97201.94;;;11.12
20730;BMP280;10526;50.850;12.928;2023-11-19T14:15:34;97209.50;;;10.97
20730;BMP280;10526;50.850;12.928;2023-11-19T14:19:58;97224.63;;;10.84
20730;BMP280;10526;50.850;12.928;2023-11-19T14:24:20;97225.69;;;10.70
20730;BMP280;10526;50.850;12.928;2023-11-19T14:28:44;97228.22;;;10.57
20730;BMP280;10526;50.850;12.928;2023-11-19T14:33:09;97217.72;;;10.50
20730;BMP280;10526;50.850;12.928;2023-11-19T14:37:32;97217.03;;;10.46
20730;BMP280;10526;50.850;12.928;2023-11-19T14:41:54;97218.25;;;10.42
20730;BMP280;10526;50.850;12.928;2023-11-19T14:46:20;97204.75;;;10.32
20730;BMP280;10526;50.850;12.928;2023-11-19T14:50:42;97203.38;;;10.24
20730;BMP280;10526;50.850;12.928;2023-11-19T14:55:08;97207.03;;;10.14
20730;BMP280;10526;50.850;12.928;2023-11-19T14:59:31;97194.25;;;10.05
20730;BMP280;10526;50.850;12.928;2023-11-19T15:03:55;97202.81;;;9.93
20730;BMP280;10526;50.850;12.928;2023-11-19T15:08:23;97203.16;;;9.75
20730;BMP280;10526;50.850;12.928;2023-11-19T15:12:46;97200.19;;;9.70
20730;BMP280;10526;50.850;12.928;2023-11-19T15:17:08;97210.34;;;9.75
20730;BMP280;10526;50.850;12.928;2023-11-19T15:21:31;97200.28;;;9.86
20730;BMP280;10526;50.850;12.928;2023-11-19T15:25:54;97210.84;;;9.90
20730;BMP280;10526;50.850;12.928;2023-11-19T15:30:18;97211.69;;;9.87
20730;BMP280;10526;50.850;12.928;2023-11-19T15:34:41;97207.56;;;9.82
20730;BMP280;10526;50.850;12.928;2023-11-19T15:39:04;97210.63;;;9.80
20730;BMP280;10526;50.850;12.928;2023-11-19T15:43:28;97211.06;;;9.79
20730;BMP280;10526;50.850;12.928;2023-11-19T15:47:50;97206.19;;;9.74
20730;BMP280;10526;50.850;12.928;2023-11-19T15:52:15;97213.91;;;9.68
20730;BMP280;10526;50.850;12.928;2023-11-19T15:56:38;97213.59;;;9.63
20730;BMP280;10526;50.850;12.928;2023-11-19T16:01:00;97209.53;;;9.54
20730;BMP280;10526;50.850;12.928;2023-11-19T16:05:23;97204.81;;;9.42
20730;BMP280;10526;50.850;12.928;2023-11-19T16:09:48;97223.09;;;9.37
20730;BMP280;10526;50.850;12.928;2023-11-19T16:14:10;97226.03;;;9.19
20730;BMP280;10526;50.850;12.928;2023-11-19T16:18:33;97235.69;;;9.06
20730;BMP280;10526;50.850;12.928;2023-11-19T16:22:55;97231.72;;;8.90
20730;BMP280;10526;50.850;12.928;2023-11-19T16:27:19;97232.34;;;8.71
20730;BMP280;10526;50.850;12.928;2023-11-19T16:31:44;97235.97;;;8.54
20730;BMP280;10526;50.850;12.928;2023-11-19T16:36:08;97232.31;;;8.40
20730;BMP280;10526;50.850;12.928;2023-11-19T16:40:32;97227.81;;;8.37
20730;BMP280;10526;50.850;12.928;2023-11-19T16:44:54;97234.19;;;8.43
20730;BMP280;10526;50.850;12.928;2023-11-19T16:49:16;97240.63;;;8.42
20730;BMP280;10526;50.850;12.928;2023-11-19T16:53:38;97231.81;;;8.53
20730;BMP280;10526;50.850;12.928;2023-11-19T16:58:00;97245.03;;;8.56
20730;BMP280;10526;50.850;12.928;2023-11-19T17:02:24;97253.41;;;8.51
20730;BMP280;10526;50.850;12.928;2023-11-19T17:06:50;97258.38;;;8.49
20730;BMP280;10526;50.850;12.928;2023-11-19T17:11:12;97256.47;;;8.50
20730;BMP280;10526;50.850;12.928;2023-11-19T17:15:34;97250.28;;;8.60
20730;BMP280;10526;50.850;12.928;2023-11-19T17:19:56;97252.44;;;8.72
20730;BMP280;10526;50.850;12.928;2023-11-19T17:24:19;97247.38;;;8.81
20730;BMP280;10526;50.850;12.928;2023-11-19T17:28:41;97251.16;;;8.84
20730;BMP280;10526;50.850;12.928;2023-11-19T17:33:04;97252.97;;;8.87
20730;BMP280;10526;50.850;12.928;2023-11-19T17:37:27;97253.75;;;8.87
20730;BMP280;10526;50.850;12.928;2023-11-19T17:41:51;97243.91;;;8.88
20730;BMP280;10526;50.850;12.928;2023-11-19T17:46:14;97241.59;;;8.90
20730;BMP280;10526;50.850;12.928;2023-11-19T17:50:38;97250.88;;;9.05
20730;BMP280;10526;50.850;12.928;2023-11-19T17:55:05;97249.63;;;9.13
20730;BMP280;10526;50.850;12.928;2023-11-19T17:59:28;97241.94;;;9.22
20730;BMP280;10526;50.850;12.928;2023-11-19T18:03:52;97240.72;;;9.27
20730;BMP280;10526;50.850;12.928;2023-11-19T18:08:15;97245.97;;;9.31
20730;BMP280;10526;50.850;12.928;2023-11-19T18:12:40;97248.22;;;9.32
20730;BMP280;10526;50.850;12.928;2023-11-19T18:17:02;97243.28;;;9.34
20730;BMP280;10526;50.850;12.928;2023-11-19T18:21:24;97243.97;;;9.38
20730;BMP280;10526;50.850;12.928;2023-11-19T18:25:47;97250.78;;;9.39
20730;BMP280;10526;50.850;12.928;2023-11-19T18:30:11;97246.91;;;9.44
20730;BMP280;10526;50.850;12.928;2023-11-19T18:34:35;97246.88;;;9.47
20730;BMP280;10526;50.850;12.928;2023-11-19T18:38:58;97254.41;;;9.52
20730;BMP280;10526;50.850;12.928;2023-11-19T18:43:20;97247.50;;;9.55
20730;BMP280;10526;50.850;12.928;2023-11-19T18:47:43;97259.34;;;9.50
20730;BMP280;10526;50.850;12.928;2023-11-19T18:52:05;97248.38;;;9.48
20730;BMP280;10526;50.850;12.928;2023-11-19T18:56:29;97255.31;;;9.42
20730;BMP280;10526;50.850;12.928;2023-11-19T19:00:52;97257.59;;;9.40
20730;BMP280;10526;50.850;12.928;2023-11-19T19:05:16;97258.25;;;9.48
20730;BMP280;10526;50.850;12.928;2023-11-19T19:09:38;97265.03;;;9.52
20730;BMP280;10526;50.850;12.928;2023-11-19T19:14:01;97265.03;;;9.52
20730;BMP280;10526;50.850;12.928;2023-11-19T19:18:25;97267.00;;;9.48
20730;BMP280;10526;50.850;12.928;2023-11-19T19:22:47;97262.47;;;9.45
20730;BMP280;10526;50.850;12.928;2023-11-19T19:27:10;97267.84;;;9.42
20730;BMP280;10526;50.850;12.928;2023-11-19T19:31:32;97268.34;;;9.33
20730;BMP280;10526;50.850;12.928;2023-11-19T19:35:54;97261.59;;;9.25
20730;BMP280;10526;50.850;12.928;2023-11-19T19:40:16;97271.53;;;9.21
20730;BMP280;10526;50.850;12.928;2023-11-19T19:44:41;97277.53;;;9.25
20730;BMP280;10526;50.850;12.928;2023-11-19T19:49:06;97280.91;;;9.29
20730;BMP280;10526;50.850;12.928;2023-11-19T19:53:30;97272.03;;;9.39
20730;BMP280;10526;50.850;12.928;2023-11-19T19:57:52;97276.09;;;9.47
20730;BMP280;10526;50.850;12.928;2023-11-19T20:02:14;97271.81;;;9.53
20730;BMP280;10526;50.850;12.928;2023-11-19T20:06:38;97274.03;;;9.59
20730;BMP280;10526;50.850;12.928;2023-11-19T20:11:00;97262.47;;;9.45
20730;BMP280;10526;50.850;12.928;2023-11-19T20:15:23;97273.53;;;9.40
20730;BMP280;10526;50.850;12.928;2023-11-19T20:19:46;97265.22;;;9.38
20730;BMP280;10526;50.850;12.928;2023-11-19T20:24:08;97260.28;;;9.37
20730;BMP280;10526;50.850;12.928;2023-11-19T20:28:31;97262.94;;;9.37
20730;BMP280;10526;50.850;12.928;2023-11-19T20:32:52;97254.97;;;9.37
20730;BMP280;10526;50.850;12.928;2023-11-19T20:37:16;97271.03;;;9.33
20730;BMP280;10526;50.850;12.928;2023-11-19T20:41:38;97259.38;;;9.23
20730;BMP280;10526;50.850;12.928;2023-11-19T20:46:01;97265.44;;;9.24
20730;BMP280;10526;50.850;12.928;2023-11-19T20:50:25;97258.22;;;9.24
20730;BMP280;10526;50.850;12.928;2023-11-19T20:54:49;97254.41;;;9.25
20730;BMP280;10526;50.850;12.928;2023-11-19T20:59:12;97257.41;;;9.27
20730;BMP280;10526;50.850;12.928;2023-11-19T21:03:38;97257.72;;;9.33
20730;BMP280;10526;50.850;12.928;2023-11-19T21:08:00;97257.25;;;9.38
20730;BMP280;10526;50.850;12.928;2023-11-19T21:12:22;97253.75;;;9.45
20730;BMP280;10526;50.850;12.928;2023-11-19T21:16:45;97246.47;;;9.49
20730;BMP280;10526;50.850;12.928;2023-11-19T21:21:07;97254.34;;;9.56
20730;BMP280;10526;50.850;12.928;2023-11-19T21:25:30;97253.88;;;9.61
20730;BMP280;10526;50.850;12.928;2023-11-19T21:29:52;97252.69;;;9.62
20730;BMP280;10526;50.850;12.928;2023-11-19T21:34:14;97253.41;;;9.66
20730;BMP280;10526;50.850;12.928;2023-11-19T21:38:36;97237.81;;;9.68
20730;BMP280;10526;50.850;12.928;2023-11-19T21:42:58;97224.53;;;9.68
20730;BMP280;10526;50.850;12.928;2023-11-19T21:47:21;97221.16;;;9.64
20730;BMP280;10526;50.850;12.928;2023-11-19T21:51:46;97224.56;;;9.65
20730;BMP280;10526;50.850;12.928;2023-11-19T21:56:09;97223.41;;;9.66
20730;BMP280;10526;50.850;12.928;2023-11-19T22:00:34;97221.50;;;9.66
20730;BMP280;10526;50.850;12.928;2023-11-19T22:04:56;97215.81;;;9.68
20730;BMP280;10526;50.850;12.928;2023-11-19T22:09:18;97214.25;;;9.70
20730;BMP280;10526;50.850;12.928;2023-11-19T22:13:40;97212.66;;;9.73
20730;BMP280;10526;50.850;12.928;2023-11-19T22:18:02;97197.06;;;9.75
20730;BMP280;10526;50.850;12.928;2023-11-19T22:22:25;97223.53;;;9.82
20730;BMP280;10526;50.850;12.928;2023-11-19T22:26:46;97219.72;;;9.83
20730;BMP280;10526;50.850;12.928;2023-11-19T22:31:08;97225.78;;;9.83
20730;BMP280;10526;50.850;12.928;2023-11-19T22:35:31;97222.38;;;9.83
20730;BMP280;10526;50.850;12.928;2023-11-19T22:39:53;97227.69;;;9.83
20730;BMP280;10526;50.850;12.928;2023-11-19T22:44:15;97237.19;;;9.84
20730;BMP280;10526;50.850;12.928;2023-11-19T22:48:37;97234.84;;;9.86
20730;BMP280;10526;50.850;12.928;2023-11-19T22:53:00;97219.72;;;9.83
20730;BMP280;10526;50.850;12.928;2023-11-19T22:57:22;97245.50;;;9.86
20730;BMP280;10526;50.850;12.928;2023-11-19T23:01:44;97244.00;;;9.85
20730;BMP280;10526;50.850;12.928;2023-11-19T23:06:10;97241.00;;;9.83
20730;BMP280;10526;50.850;12.928;2023-11-19T23:10:32;97235.00;;;9.79
20730;BMP280;10526;50.850;12.928;2023-11-19T23:14:55;97244.28;;;9.67
20730;BMP280;10526;50.850;12.928;2023-11-19T23:19:21;97246.44;;;9.52
20730;BMP280;10526;50.850;12.928;2023-11-19T23:23:43;97251.94;;;9.38
20730;BMP280;10526;50.850;12.928;2023-11-19T23:28:05;97243.47;;;9.20
20730;BMP280;10526;50.850;12.928;2023-11-19T23:32:28;97236.03;;;9.08
20730;BMP280;10526;50.850;12.928;2023-11-19T23:36:51;97237.00;;;8.94
20730;BMP280;10526;50.850;12.928;2023-11-19T23:41:13;97239.41;;;8.85
20730;BMP280;10526;50.850;12.928;2023-11-19T23:45:35;97232.63;;;8.80
20730;BMP280;10526;50.850;12.928;2023-11-19T23:49:57;97231.19;;;8.76
20730;BMP280;10526;50.850;12.928;2023-11-19T23:54:19;97223.59;;;8.74
20730;BMP280;10526;50.850;12.928;2023-11-19T23:58:42;97225.13;;;8.71
